Time;durP1;ratioP1;P1;durP2;ratioP2;P2;SDS_P1;SDS_P2;PMS_P1;PMS_P2;Temp;Humidity;BMP_temperature;BMP_pressure;BME280_temperature;BME280_humidity;BME280_pressure;Samples;Min_cycle;Max_cycle;Signal;HPM_P1;HPM_P2
2023/06/07 00:01:14;;;;;;;8.98;4.82;;;11.90;99.90;;;;;;5091270;28;20059;-65
2023/06/07 00:03:41;;;;;;;8.93;4.78;;;11.80;99.90;;;;;;5091460;28;20074;-64
2023/06/07 00:06:11;;;;;;;8.07;4.75;;;11.80;99.90;;;;;;5090875;28;20048;-64
2023/06/07 00:08:37;;;;;;;11.80;4.82;;;11.80;99.90;;;;;;5091297;28;20044;-63
2023/06/07 00:11:03;;;;;;;10.43;4.63;;;11.70;99.90;;;;;;5094632;28;20113;-65
2023/06/07 00:13:30;;;;;;;13.23;5.20;;;11.70;99.90;;;;;;5095013;28;20055;-64
2023/06/07 00:15:57;;;;;;;9.65;5.25;;;11.70;99.90;;;;;;5094576;28;20104;-65
2023/06/07 00:18:23;;;;;;;10.55;5.50;;;11.70;99.90;;;;;;5094822;28;20044;-64
2023/06/07 00:20:49;;;;;;;8.88;5.20;;;11.70;99.90;;;;;;5095130;28;20044;-63
2023/06/07 00:23:16;;;;;;;11.07;4.68;;;11.70;99.90;;;;;;5094573;28;20052;-63
2023/06/07 00:25:42;;;;;;;9.20;5.28;;;11.70;99.90;;;;;;5094478;28;20054;-64
2023/06/07 00:28:09;;;;;;;11.00;5.35;;;11.60;99.90;;;;;;5094712;28;20129;-64
2023/06/07 00:30:35;;;;;;;8.15;4.85;;;11.70;99.90;;;;;;5094318;28;20048;-63
2023/06/07 00:33:01;;;;;;;9.60;4.90;;;11.60;99.90;;;;;;5094810;28;20048;-65
2023/06/07 00:35:28;;;;;;;11.70;5.07;;;11.70;99.90;;;;;;5093941;28;20044;-64
2023/06/07 00:37:54;;;;;;;8.70;4.90;;;11.70;99.90;;;;;;5094683;28;20430;-64
2023/06/07 00:40:21;;;;;;;11.07;5.63;;;11.60;99.90;;;;;;5095112;28;20040;-64
2023/06/07 00:42:47;;;;;;;13.73;5.10;;;11.60;99.90;;;;;;5094657;28;20040;-64
2023/06/07 00:45:13;;;;;;;8.35;5.07;;;11.60;99.90;;;;;;5093183;28;20053;-64
2023/06/07 00:47:39;;;;;;;12.38;5.30;;;11.70;99.90;;;;;;5094705;28;20113;-63
2023/06/07 00:50:07;;;;;;;13.88;6.00;;;11.60;99.90;;;;;;5094674;28;20052;-63
2023/06/07 00:52:35;;;;;;;11.13;5.35;;;11.60;99.90;;;;;;5094844;28;20145;-63
2023/06/07 00:55:02;;;;;;;8.82;5.30;;;11.50;99.90;;;;;;5094179;28;20120;-63
2023/06/07 00:57:29;;;;;;;10.00;5.53;;;11.60;99.90;;;;;;5094793;28;20052;-63
2023/06/07 00:59:56;;;;;;;11.65;5.70;;;11.50;99.90;;;;;;5094649;28;20459;-63
2023/06/07 01:02:22;;;;;;;10.80;5.22;;;11.50;99.90;;;;;;5094059;28;20433;-64
2023/06/07 01:04:49;;;;;;;11.45;5.18;;;11.50;99.90;;;;;;5094170;28;20054;-63
2023/06/07 01:07:24;;;;;;;15.02;5.68;;;11.50;99.90;;;;;;5093985;28;20047;-64
2023/06/07 01:09:52;;;;;;;10.40;6.20;;;11.50;99.90;;;;;;5094401;28;20052;-64
2023/06/07 01:12:19;;;;;;;10.95;5.35;;;11.40;99.90;;;;;;5093803;28;20056;-64
2023/06/07 01:14:47;;;;;;;10.65;5.75;;;11.50;99.90;;;;;;5094267;28;20044;-64
2023/06/07 01:17:16;;;;;;;12.05;5.50;;;11.40;99.90;;;;;;5093313;28;20052;-64
2023/06/07 01:19:45;;;;;;;12.30;5.93;;;11.50;99.90;;;;;;5093510;28;20040;-65
2023/06/07 01:22:14;;;;;;;12.48;5.47;;;11.40;99.90;;;;;;5093354;28;20406;-65
2023/06/07 01:24:42;;;;;;;14.55;5.80;;;11.40;99.90;;;;;;5093789;28;20104;-64
2023/06/07 01:27:10;;;;;;;10.88;6.22;;;11.40;99.90;;;;;;5093491;28;20044;-65
2023/06/07 01:29:37;;;;;;;13.13;5.40;;;11.30;99.90;;;;;;5093816;28;20056;-64
2023/06/07 01:32:06;;;;;;;11.00;6.47;;;11.30;99.90;;;;;;5093926;28;20055;-65
2023/06/07 01:34:34;;;;;;;11.63;5.97;;;11.30;99.90;;;;;;5093919;28;20052;-63
2023/06/07 01:37:01;;;;;;;12.93;5.72;;;11.30;99.90;;;;;;5093054;28;20047;-64
2023/06/07 01:39:29;;;;;;;13.35;5.60;;;11.20;99.90;;;;;;5093644;28;20044;-63
2023/06/07 01:41:56;;;;;;;13.20;6.05;;;11.20;99.90;;;;;;5093042;28;20460;-65
2023/06/07 01:44:23;;;;;;;12.88;5.47;;;11.20;99.90;;;;;;5093582;28;20044;-64
2023/06/07 01:46:50;;;;;;;11.93;5.97;;;11.20;99.90;;;;;;5094302;28;20055;-63
2023/06/07 01:49:21;;;;;;;11.45;6.05;;;11.20;99.90;;;;;;5095525;28;20048;-63
2023/06/07 01:51:48;;;;;;;10.70;5.80;;;11.10;99.90;;;;;;5095253;28;20054;-63
2023/06/07 01:54:15;;;;;;;13.18;6.35;;;11.10;99.90;;;;;;5093417;28;20134;-63
2023/06/07 01:57:06;;;;;;;10.60;6.18;;;11.10;99.90;;;;;;5091577;28;20052;-63
2023/06/07 01:59:58;;;;;;;15.23;6.40;;;11.10;99.90;;;;;;5093153;28;20143;-63
2023/06/07 02:02:50;;;;;;;12.43;6.13;;;11.10;99.90;;;;;;5092699;28;20460;-63
2023/06/07 02:05:20;;;;;;;13.68;6.07;;;11.00;99.90;;;;;;5092392;28;20098;-65
2023/06/07 02:07:53;;;;;;;15.68;6.80;;;11.00;99.90;;;;;;5093065;28;20052;-63
2023/06/07 02:10:23;;;;;;;11.32;6.45;;;10.90;99.90;;;;;;5092894;28;20472;-65
2023/06/07 02:12:53;;;;;;;12.75;6.82;;;10.90;99.90;;;;;;5093855;28;20069;-65
2023/06/07 02:15:21;;;;;;;13.48;6.95;;;10.90;99.90;;;;;;5093078;28;20456;-64
2023/06/07 02:17:57;;;;;;;15.60;7.60;;;10.80;99.90;;;;;;5092895;28;20376;-63
2023/06/07 02:20:25;;;;;;;12.65;7.50;;;10.80;99.90;;;;;;5091993;28;20060;-64
2023/06/07 02:22:51;;;;;;;13.25;7.13;;;10.80;99.90;;;;;;5092939;28;20044;-64
2023/06/07 02:25:18;;;;;;;13.95;7.65;;;10.80;99.90;;;;;;5093019;28;20074;-64
2023/06/07 02:27:44;;;;;;;17.77;7.03;;;10.80;99.90;;;;;;5093070;28;20044;-64
2023/06/07 02:30:11;;;;;;;14.90;7.55;;;10.80;99.90;;;;;;5092746;28;20117;-64
2023/06/07 02:32:38;;;;;;;14.75;7.68;;;10.70;99.90;;;;;;5091858;28;20056;-64
2023/06/07 02:35:07;;;;;;;13.88;7.38;;;10.70;99.90;;;;;;5092149;28;20077;-65
2023/06/07 02:37:33;;;;;;;10.88;6.82;;;10.60;99.90;;;;;;5092445;28;20101;-64
2023/06/07 02:40:00;;;;;;;13.90;6.88;;;10.70;99.90;;;;;;5092201;28;20073;-64
2023/06/07 02:42:26;;;;;;;14.65;7.47;;;10.70;99.90;;;;;;5092106;28;20051;-64
2023/06/07 02:44:52;;;;;;;12.00;6.40;;;10.60;99.90;;;;;;5092275;28;20040;-64
2023/06/07 02:47:18;;;;;;;14.63;7.35;;;10.60;99.90;;;;;;5092622;28;20048;-64
2023/06/07 02:49:45;;;;;;;11.75;7.38;;;10.60;99.90;;;;;;5091332;28;20060;-64
2023/06/07 02:52:11;;;;;;;12.73;7.00;;;10.60;99.90;;;;;;5092218;28;20051;-64
2023/06/07 02:54:39;;;;;;;10.95;6.68;;;10.60;99.90;;;;;;5092522;28;20063;-64
2023/06/07 02:57:07;;;;;;;13.75;7.15;;;10.60;99.90;;;;;;5092763;28;20048;-64
2023/06/07 02:59:34;;;;;;;12.63;6.72;;;10.70;99.90;;;;;;5092465;28;20044;-64
2023/06/07 03:02:00;;;;;;;13.95;7.30;;;10.70;99.90;;;;;;5092440;28;20089;-64
2023/06/07 03:04:28;;;;;;;18.15;7.80;;;10.70;99.90;;;;;;5092709;28;20074;-63
2023/06/07 03:06:55;;;;;;;12.65;6.40;;;10.70;99.90;;;;;;5092231;28;20059;-64
2023/06/07 03:09:21;;;;;;;14.38;7.13;;;10.60;99.90;;;;;;5092964;28;20063;-64
2023/06/07 03:11:48;;;;;;;13.80;7.22;;;10.60;99.90;;;;;;5093068;28;20056;-64
2023/06/07 03:14:16;;;;;;;12.50;7.07;;;10.60;99.90;;;;;;5092328;28;20052;-64
2023/06/07 03:16:44;;;;;;;13.93;6.72;;;10.60;99.90;;;;;;5091971;28;20059;-64
2023/06/07 03:19:11;;;;;;;12.55;6.95;;;10.60;99.90;;;;;;5092333;28;20044;-64
2023/06/07 03:21:44;;;;;;;12.00;6.93;;;10.60;99.90;;;;;;5092135;28;20052;-64
2023/06/07 03:24:11;;;;;;;13.98;7.07;;;10.60;99.90;;;;;;5091937;28;20131;-64
2023/06/07 03:26:38;;;;;;;14.32;6.93;;;10.60;99.90;;;;;;5091568;28;20113;-64
2023/06/07 03:29:04;;;;;;;13.85;6.82;;;10.60;99.90;;;;;;5091923;28;20048;-64
2023/06/07 03:31:31;;;;;;;11.63;6.97;;;10.70;99.90;;;;;;5091553;28;20173;-63
2023/06/07 03:33:58;;;;;;;12.27;6.82;;;10.70;99.90;;;;;;5092085;28;20063;-64
2023/06/07 03:36:28;;;;;;;14.65;7.18;;;10.80;99.90;;;;;;5091075;28;20055;-64
2023/06/07 03:38:56;;;;;;;11.48;6.50;;;10.80;99.90;;;;;;5091946;28;20073;-66
2023/06/07 03:41:23;;;;;;;15.43;7.13;;;10.80;99.90;;;;;;5091206;28;20498;-65
2023/06/07 03:43:49;;;;;;;13.95;6.95;;;10.70;99.90;;;;;;5092869;28;20040;-63
2023/06/07 03:46:15;;;;;;;11.73;6.32;;;10.80;99.90;;;;;;5095273;28;20044;-64
2023/06/07 03:48:42;;;;;;;15.30;6.32;;;10.80;99.90;;;;;;5096474;28;20066;-64
2023/06/07 03:51:08;;;;;;;11.23;5.90;;;10.80;99.90;;;;;;5096072;28;20056;-63
2023/06/07 03:53:35;;;;;;;14.20;6.85;;;10.90;99.90;;;;;;5095026;28;20054;-64
2023/06/07 03:56:01;;;;;;;13.32;6.63;;;10.90;99.90;;;;;;5094925;28;20051;-64
2023/06/07 03:58:28;;;;;;;12.18;5.75;;;10.90;99.90;;;;;;5095137;28;20059;-64
2023/06/07 04:00:54;;;;;;;13.10;5.95;;;11.00;99.90;;;;;;5095400;28;20055;-63
2023/06/07 04:03:24;;;;;;;12.70;6.20;;;11.00;99.90;;;;;;5095215;28;20047;-64
2023/06/07 04:05:51;;;;;;;13.88;6.70;;;11.00;99.90;;;;;;5094869;28;20142;-64
2023/06/07 04:08:17;;;;;;;11.02;5.90;;;11.10;99.90;;;;;;5095507;28;20044;-64
2023/06/07 04:10:43;;;;;;;12.52;6.32;;;11.10;99.90;;;;;;5095216;28;20056;-64
2023/06/07 04:13:10;;;;;;;11.57;6.07;;;11.10;99.90;;;;;;5094811;28;20044;-64
2023/06/07 04:15:36;;;;;;;9.73;5.57;;;11.20;99.90;;;;;;5095827;28;20125;-65
2023/06/07 04:18:02;;;;;;;10.85;5.57;;;11.30;99.90;;;;;;5094960;28;20054;-66
2023/06/07 04:20:28;;;;;;;12.10;5.75;;;11.30;99.90;;;;;;5094205;28;20384;-64
2023/06/07 04:22:55;;;;;;;10.27;6.00;;;11.40;99.90;;;;;;5094462;28;20464;-64
2023/06/07 04:25:24;;;;;;;16.08;6.55;;;11.40;99.90;;;;;;5094668;28;20095;-64
2023/06/07 04:27:51;;;;;;;8.80;5.45;;;11.50;99.90;;;;;;5094864;28;20407;-65
2023/06/07 04:30:20;;;;;;;12.80;5.93;;;11.50;99.90;;;;;;5094190;28;20472;-64
2023/06/07 04:32:46;;;;;;;11.88;6.25;;;11.60;99.90;;;;;;5094497;28;20059;-64
2023/06/07 04:35:14;;;;;;;10.98;5.75;;;11.60;99.90;;;;;;5093909;28;20109;-63
2023/06/07 04:37:45;;;;;;;13.45;6.47;;;11.60;99.90;;;;;;5094646;28;20605;-65
2023/06/07 04:40:14;;;;;;;12.07;6.03;;;11.60;99.90;;;;;;5094592;28;20066;-63
2023/06/07 04:42:40;;;;;;;12.77;5.63;;;11.70;99.90;;;;;;5094047;28;20044;-64
2023/06/07 04:45:07;;;;;;;11.82;5.65;;;11.80;99.90;;;;;;5093587;28;20423;-63
2023/06/07 04:47:33;;;;;;;11.68;5.20;;;11.80;99.90;;;;;;5094297;28;20071;-63
2023/06/07 04:50:00;;;;;;;13.65;5.80;;;11.90;99.90;;;;;;5093858;28;20086;-64
2023/06/07 04:52:28;;;;;;;11.82;5.35;;;12.00;99.90;;;;;;5093842;28;20427;-64
2023/06/07 04:54:56;;;;;;;12.60;5.57;;;12.10;99.90;;;;;;5092048;28;20044;-63
2023/06/07 04:57:23;;;;;;;10.57;4.68;;;12.20;99.90;;;;;;5094101;28;20052;-64
2023/06/07 04:59:51;;;;;;;11.52;5.30;;;12.20;99.90;;;;;;5094105;28;20471;-65
2023/06/07 05:02:17;;;;;;;14.43;5.20;;;12.20;99.90;;;;;;5093773;28;20047;-63
2023/06/07 05:04:44;;;;;;;12.98;4.75;;;12.30;99.90;;;;;;5093362;28;20058;-64
2023/06/07 05:07:13;;;;;;;10.00;4.45;;;12.30;99.90;;;;;;5090040;28;20041;-63
2023/06/07 05:09:39;;;;;;;9.15;4.05;;;12.40;99.90;;;;;;5083985;28;20055;-63
2023/06/07 05:12:07;;;;;;;9.15;3.92;;;12.50;99.90;;;;;;5083428;28;20094;-64
2023/06/07 05:14:33;;;;;;;10.52;4.38;;;12.60;99.90;;;;;;5080716;28;20500;-64
2023/06/07 05:16:59;;;;;;;8.52;4.18;;;12.60;99.90;;;;;;5077243;28;20044;-64
2023/06/07 05:19:26;;;;;;;11.45;4.65;;;12.70;99.90;;;;;;5073004;28;20372;-65
2023/06/07 05:21:52;;;;;;;12.40;4.60;;;12.70;99.90;;;;;;5087362;28;20416;-64
2023/06/07 05:24:18;;;;;;;13.77;4.78;;;12.70;99.90;;;;;;5093651;28;20113;-64
2023/06/07 05:26:44;;;;;;;13.65;4.30;;;12.70;99.90;;;;;;5093144;28;20396;-65
2023/06/07 05:29:11;;;;;;;13.13;4.85;;;12.70;99.90;;;;;;5092983;28;21250;-64
2023/06/07 05:31:37;;;;;;;16.15;4.85;;;12.70;99.90;;;;;;5092960;28;20435;-65
2023/06/07 05:34:04;;;;;;;13.95;4.28;;;12.80;99.90;;;;;;5093595;28;20130;-65
2023/06/07 05:36:34;;;;;;;13.70;4.18;;;12.90;99.90;;;;;;5092716;28;20460;-64
2023/06/07 05:39:01;;;;;;;13.38;4.68;;;12.90;99.90;;;;;;5093356;28;20093;-64
2023/06/07 05:41:27;;;;;;;11.48;4.40;;;12.90;99.90;;;;;;5093041;28;20450;-65
2023/06/07 05:43:53;;;;;;;13.15;4.43;;;12.90;99.90;;;;;;5092339;28;20052;-65
2023/06/07 05:46:20;;;;;;;12.07;4.32;;;12.90;99.90;;;;;;5092815;28;20058;-63
2023/06/07 05:48:46;;;;;;;10.05;4.25;;;12.80;99.90;;;;;;5092765;28;20048;-64
2023/06/07 05:51:13;;;;;;;11.18;4.60;;;12.90;99.90;;;;;;5092872;28;20456;-64
2023/06/07 05:53:39;;;;;;;13.05;4.88;;;13.00;99.90;;;;;;5092019;28;20115;-63
2023/06/07 05:56:05;;;;;;;13.55;4.90;;;13.10;99.90;;;;;;5092508;28;20060;-63
2023/06/07 05:58:32;;;;;;;15.07;5.05;;;13.20;99.90;;;;;;5092905;28;20426;-63
2023/06/07 06:00:59;;;;;;;13.98;5.10;;;13.20;99.90;;;;;;5090743;28;20101;-64
2023/06/07 06:03:25;;;;;;;14.18;5.80;;;13.30;99.90;;;;;;5092649;28;20055;-64
2023/06/07 06:05:53;;;;;;;8.75;4.55;;;13.20;99.90;;;;;;5092849;28;20324;-65
2023/06/07 06:08:19;;;;;;;13.90;4.70;;;13.10;99.90;;;;;;5093038;28;20048;-63
2023/06/07 06:10:46;;;;;;;12.25;4.53;;;13.20;99.90;;;;;;5092136;28;20047;-63
2023/06/07 06:13:12;;;;;;;13.93;5.18;;;13.20;99.90;;;;;;5092539;28;20067;-64
2023/06/07 06:15:38;;;;;;;9.95;5.03;;;13.20;99.90;;;;;;5092532;28;20127;-64
2023/06/07 06:18:05;;;;;;;13.43;5.50;;;13.20;99.90;;;;;;5092679;28;20052;-63
2023/06/07 06:20:33;;;;;;;12.65;5.43;;;13.30;99.90;;;;;;5091787;28;20460;-64
2023/06/07 06:23:03;;;;;;;13.98;5.53;;;13.30;99.90;;;;;;5092362;28;20040;-62
2023/06/07 06:25:30;;;;;;;14.57;5.05;;;13.20;99.90;;;;;;5092612;28;20091;-63
2023/06/07 06:27:57;;;;;;;10.95;4.70;;;13.20;99.90;;;;;;5092464;28;20051;-63
2023/06/07 06:30:26;;;;;;;10.18;4.35;;;13.30;99.90;;;;;;5090901;28;20478;-63
2023/06/07 06:32:52;;;;;;;12.10;4.55;;;13.40;99.90;;;;;;5080690;28;20040;-63
2023/06/07 06:35:18;;;;;;;10.13;4.38;;;13.50;99.90;;;;;;5084541;28;20052;-64
2023/06/07 06:37:45;;;;;;;12.60;4.85;;;13.50;99.90;;;;;;5091935;28;20139;-63
2023/06/07 06:40:12;;;;;;;11.18;4.40;;;13.50;99.90;;;;;;5086621;28;20049;-63
2023/06/07 06:42:38;;;;;;;14.43;5.10;;;13.60;99.90;;;;;;5080817;28;20048;-65
2023/06/07 06:45:05;;;;;;;12.88;4.55;;;13.70;99.90;;;;;;5091787;28;20048;-64
2023/06/07 06:47:31;;;;;;;7.60;4.25;;;13.70;99.90;;;;;;5092101;28;20113;-64
2023/06/07 06:49:59;;;;;;;12.13;5.18;;;13.90;99.90;;;;;;5089990;28;20498;-64
2023/06/07 06:52:26;;;;;;;12.93;5.38;;;14.10;99.90;;;;;;5090407;28;20040;-64
2023/06/07 06:54:52;;;;;;;10.68;4.75;;;14.20;99.90;;;;;;5092528;28;20066;-65
2023/06/07 06:57:18;;;;;;;14.80;4.50;;;14.40;99.90;;;;;;5091622;28;20127;-64
2023/06/07 06:59:45;;;;;;;12.90;4.95;;;14.50;99.90;;;;;;5091976;28;20102;-62
2023/06/07 07:02:11;;;;;;;12.73;5.70;;;14.80;99.90;;;;;;5092343;28;20093;-63
2023/06/07 07:04:37;;;;;;;11.85;5.45;;;15.20;99.90;;;;;;5092138;28;20105;-65
2023/06/07 07:07:04;;;;;;;12.45;4.60;;;15.40;99.90;;;;;;5092542;28;20040;-64
2023/06/07 07:09:30;;;;;;;13.35;4.60;;;15.70;99.90;;;;;;5091714;28;20040;-64
2023/06/07 07:11:56;;;;;;;8.88;4.28;;;15.90;99.90;;;;;;5092259;28;20083;-64
2023/06/07 07:14:23;;;;;;;10.60;4.28;;;16.10;99.90;;;;;;5091089;28;20055;-63
2023/06/07 07:16:49;;;;;;;12.65;4.20;;;16.30;99.90;;;;;;5091652;28;20070;-64
2023/06/07 07:19:15;;;;;;;9.70;3.83;;;16.50;99.90;;;;;;5093974;28;20044;-65
2023/06/07 07:21:43;;;;;;;10.15;3.88;;;17.00;99.90;;;;;;5096030;28;20048;-63
2023/06/07 07:24:09;;;;;;;13.07;4.03;;;17.30;99.90;;;;;;5076147;28;20063;-64
2023/06/07 07:26:36;;;;;;;7.80;3.47;;;17.10;99.90;;;;;;5095091;28;20063;-63
2023/06/07 07:29:03;;;;;;;13.10;4.00;;;17.10;99.90;;;;;;5095658;28;20048;-65
2023/06/07 07:31:30;;;;;;;10.23;4.00;;;17.30;99.90;;;;;;5078201;28;20048;-65
2023/06/07 07:33:57;;;;;;;8.50;3.80;;;17.30;99.90;;;;;;5094905;28;20384;-65
2023/06/07 07:36:24;;;;;;;10.15;3.88;;;17.40;99.90;;;;;;5096042;28;20056;-65
2023/06/07 07:38:51;;;;;;;8.98;3.90;;;17.70;99.90;;;;;;5096204;28;20381;-64
2023/06/07 07:41:18;;;;;;;10.73;4.22;;;17.80;99.90;;;;;;5095643;28;20427;-64
2023/06/07 07:43:44;;;;;;;7.80;3.40;;;17.90;99.90;;;;;;5095877;28;20052;-63
2023/06/07 07:46:12;;;;;;;11.10;3.58;;;18.10;99.90;;;;;;5096063;28;20044;-63
2023/06/07 07:48:38;;;;;;;8.18;3.85;;;18.20;99.90;;;;;;5096149;28;20462;-64
2023/06/07 07:51:05;;;;;;;8.63;3.60;;;18.00;99.90;;;;;;5095473;28;20059;-63
2023/06/07 07:53:33;;;;;;;10.43;3.92;;;18.00;99.90;;;;;;5095535;28;20059;-64
2023/06/07 07:56:00;;;;;;;8.77;3.60;;;17.80;99.90;;;;;;5094911;28;20044;-64
2023/06/07 07:58:26;;;;;;;11.35;4.10;;;17.80;99.90;;;;;;5095848;28;20109;-63
2023/06/07 08:00:52;;;;;;;12.63;4.07;;;17.70;99.90;;;;;;5095007;28;20422;-66
2023/06/07 08:03:19;;;;;;;7.63;3.38;;;17.70;99.90;;;;;;5095606;28;20044;-64
2023/06/07 08:05:45;;;;;;;10.57;3.90;;;17.70;99.90;;;;;;5095401;28;20125;-63
2023/06/07 08:08:12;;;;;;;7.15;3.65;;;18.10;99.90;;;;;;5095710;28;20117;-64
2023/06/07 08:10:38;;;;;;;11.32;3.72;;;18.30;99.90;;;;;;5095024;28;20056;-64
2023/06/07 08:13:04;;;;;;;8.27;3.65;;;18.40;99.90;;;;;;5095379;28;20052;-64
2023/06/07 08:15:31;;;;;;;10.20;3.65;;;18.30;99.90;;;;;;5094396;28;20051;-63
2023/06/07 08:17:58;;;;;;;10.70;4.03;;;18.30;99.90;;;;;;5093117;28;20051;-63
2023/06/07 08:20:24;;;;;;;9.50;3.58;;;18.40;99.90;;;;;;5094411;28;20479;-64
2023/06/07 08:22:50;;;;;;;12.55;3.90;;;18.50;99.90;;;;;;5095033;28;20511;-64
2023/06/07 08:25:17;;;;;;;11.20;4.03;;;18.60;99.90;;;;;;5094652;28;20093;-63
2023/06/07 08:27:43;;;;;;;6.40;3.17;;;18.60;99.90;;;;;;5095140;28;20086;-64
2023/06/07 08:30:10;;;;;;;7.88;4.10;;;18.80;99.90;;;;;;5093121;28;20052;-63
2023/06/07 08:32:36;;;;;;;9.55;3.45;;;18.80;99.90;;;;;;5094808;28;20052;-63
2023/06/07 08:35:03;;;;;;;7.85;3.45;;;18.80;99.90;;;;;;5095046;28;20070;-63
2023/06/07 08:37:29;;;;;;;8.50;3.38;;;18.90;99.90;;;;;;5094795;28;20048;-63
2023/06/07 08:39:55;;;;;;;6.85;3.40;;;19.10;99.90;;;;;;5094545;28;20044;-63
2023/06/07 08:42:22;;;;;;;11.45;4.15;;;19.10;99.90;;;;;;5094653;28;20095;-64
2023/06/07 08:44:50;;;;;;;7.70;3.72;;;19.10;99.90;;;;;;5095202;28;20134;-64
2023/06/07 08:47:17;;;;;;;8.43;3.53;;;19.20;99.90;;;;;;5094706;28;20109;-64
2023/06/07 08:49:46;;;;;;;8.05;3.72;;;19.10;99.90;;;;;;5094248;28;20063;-63
2023/06/07 08:52:13;;;;;;;14.98;4.13;;;19.00;99.90;;;;;;5094449;28;20052;-63
2023/06/07 08:54:42;;;;;;;12.50;3.97;;;18.90;99.90;;;;;;5094745;28;20044;-65
2023/06/07 08:57:09;;;;;;;8.00;3.63;;;18.90;99.90;;;;;;5094576;28;20054;-65
2023/06/07 08:59:39;;;;;;;9.52;4.47;;;19.00;99.90;;;;;;5093811;28;20476;-64
2023/06/07 09:02:06;;;;;;;12.00;4.03;;;19.10;99.90;;;;;;5094187;28;20048;-64
2023/06/07 09:04:34;;;;;;;7.82;3.85;;;19.10;99.90;;;;;;5094361;28;20044;-63
2023/06/07 09:07:04;;;;;;;12.45;4.00;;;19.30;99.90;;;;;;5094520;28;20384;-63
2023/06/07 09:09:30;;;;;;;12.95;4.53;;;19.50;99.90;;;;;;5093688;28;20537;-63
2023/06/07 09:11:56;;;;;;;8.20;4.03;;;19.60;99.90;;;;;;5093854;28;20440;-63
2023/06/07 09:14:23;;;;;;;9.68;3.55;;;19.60;99.90;;;;;;5094571;28;20101;-63
2023/06/07 09:16:56;;;;;;;8.75;3.78;;;19.60;99.90;;;;;;5094541;28;20456;-64
2023/06/07 09:19:36;;;;;;;7.82;3.92;;;19.60;99.90;;;;;;5093945;28;20113;-65
2023/06/07 09:22:04;;;;;;;9.52;3.55;;;19.80;99.90;;;;;;5093997;28;20066;-64
2023/06/07 09:24:31;;;;;;;8.82;4.25;;;20.00;99.90;;;;;;5094160;28;20056;-63
2023/06/07 09:27:00;;;;;;;11.30;3.78;;;20.00;99.90;;;;;;5083948;28;20374;-64
2023/06/07 09:29:29;;;;;;;11.20;4.10;;;19.90;99.90;;;;;;5073438;28;20060;-63
2023/06/07 09:31:56;;;;;;;10.35;4.50;;;19.90;99.90;;;;;;5075324;28;20048;-64
2023/06/07 09:34:24;;;;;;;9.77;3.95;;;19.90;99.90;;;;;;5094053;28;20478;-63
2023/06/07 09:36:57;;;;;;;8.85;3.78;;;20.00;99.90;;;;;;5094370;28;20056;-64
2023/06/07 09:39:32;;;;;;;10.85;5.00;;;20.00;99.90;;;;;;5092691;28;20055;-64
2023/06/07 09:41:58;;;;;;;9.82;4.00;;;19.90;99.90;;;;;;5093506;28;20055;-64
2023/06/07 09:44:26;;;;;;;9.25;3.90;;;20.10;99.90;;;;;;5093920;28;20051;-64
2023/06/07 09:46:57;;;;;;;12.35;4.18;;;20.30;99.90;;;;;;5094102;28;20055;-64
2023/06/07 09:49:26;;;;;;;10.35;4.03;;;20.30;99.90;;;;;;5093195;28;20048;-64
2023/06/07 09:51:53;;;;;;;8.93;3.63;;;20.30;99.90;;;;;;5093584;28;20052;-64
2023/06/07 09:54:39;;;;;;;7.07;3.95;;;20.60;99.90;;;;;;5093911;28;20059;-64
2023/06/07 09:57:23;;;;;;;8.40;4.00;;;20.70;99.90;;;;;;5093635;28;20059;-63
2023/06/07 10:00:14;;;;;;;11.23;4.53;;;20.70;99.90;;;;;;5093235;28;20055;-63
2023/06/07 10:02:44;;;;;;;7.15;4.00;;;20.80;99.90;;;;;;5093323;28;20044;-63
2023/06/07 10:05:21;;;;;;;12.25;4.45;;;20.90;99.90;;;;;;5093540;28;20538;-63
2023/06/07 10:07:50;;;;;;;11.25;4.18;;;20.80;99.90;;;;;;5093555;28;20040;-63
2023/06/07 10:10:21;;;;;;;8.43;4.10;;;20.80;99.90;;;;;;5093377;28;20051;-65
2023/06/07 10:12:51;;;;;;;9.90;4.22;;;20.80;99.90;;;;;;5093108;28;20480;-63
2023/06/07 10:15:24;;;;;;;9.23;4.30;;;20.90;99.90;;;;;;5093001;28;20358;-65
2023/06/07 10:18:21;;;;;;;8.70;4.70;;;20.80;99.90;;;;;;5093375;28;20052;-63
2023/06/07 10:20:57;;;;;;;9.10;4.40;;;20.80;99.90;;;;;;5092484;28;20443;-63
2023/06/07 10:23:46;;;;;;;10.13;3.95;;;21.10;99.90;;;;;;5092997;28;20044;-64
2023/06/07 10:26:41;;;;;;;12.27;4.53;;;21.20;99.90;;;;;;5093061;28;20051;-63
2023/06/07 10:29:11;;;;;;;7.32;4.50;;;21.30;99.90;;;;;;5092484;28;20463;-63
2023/06/07 10:31:46;;;;;;;8.77;4.50;;;21.20;99.90;;;;;;5092965;28;20059;-64
2023/06/07 10:34:14;;;;;;;9.52;4.38;;;21.40;99.90;;;;;;5092671;28;20051;-64
2023/06/07 10:36:42;;;;;;;9.75;4.32;;;21.40;99.90;;;;;;5092810;28;20168;-63
2023/06/07 10:39:11;;;;;;;9.23;4.20;;;21.50;99.90;;;;;;5092488;28;20052;-63
2023/06/07 10:41:37;;;;;;;8.80;4.00;;;21.60;99.90;;;;;;5092889;28;20044;-63
2023/06/07 10:44:04;;;;;;;12.57;5.05;;;21.70;99.90;;;;;;5092638;28;20123;-63
2023/06/07 10:46:30;;;;;;;8.90;4.13;;;21.70;99.90;;;;;;5092970;28;20058;-64
2023/06/07 10:48:57;;;;;;;7.22;4.32;;;21.90;99.90;;;;;;5092476;28;20051;-63
2023/06/07 10:51:41;;;;;;;10.35;4.60;;;21.90;99.90;;;;;;5092506;28;20048;-65
2023/06/07 10:54:08;;;;;;;10.82;5.07;;;21.80;99.90;;;;;;5091708;28;20056;-64
2023/06/07 10:56:36;;;;;;;8.50;4.45;;;21.90;99.90;;;;;;5092611;28;20517;-64
2023/06/07 10:59:14;;;;;;;6.80;3.90;;;22.00;99.90;;;;;;5092157;28;20055;-63
2023/06/07 11:01:43;;;;;;;9.23;4.28;;;22.10;99.90;;;;;;5091664;28;20039;-64
2023/06/07 11:04:37;;;;;;;7.68;4.30;;;22.10;99.90;;;;;;5092121;28;20484;-64
2023/06/07 11:07:22;;;;;;;10.15;4.35;;;22.30;99.70;;;;;;5092580;28;20052;-63
2023/06/07 11:10:07;;;;;;;9.68;4.78;;;22.40;99.70;;;;;;5092347;28;20398;-63
2023/06/07 11:12:38;;;;;;;11.00;4.93;;;22.40;99.70;;;;;;5091964;28;20522;-63
2023/06/07 11:15:35;;;;;;;7.72;4.10;;;22.60;99.50;;;;;;5092462;28;20052;-63
2023/06/07 11:18:07;;;;;;;5.97;3.50;;;22.80;99.00;;;;;;5076083;28;20052;-65
2023/06/07 11:20:43;;;;;;;10.75;4.35;;;23.00;99.30;;;;;;5088302;28;20363;-63
2023/06/07 11:23:34;;;;;;;10.43;4.35;;;23.20;99.00;;;;;;5083054;28;20048;-63
2023/06/07 11:26:08;;;;;;;7.30;3.95;;;22.90;98.40;;;;;;5083115;28;20048;-64
2023/06/07 11:28:37;;;;;;;10.88;3.88;;;23.00;98.90;;;;;;5079642;28;20044;-64
2023/06/07 11:31:08;;;;;;;9.77;4.47;;;23.30;99.10;;;;;;5092658;28;20414;-65
2023/06/07 11:33:35;;;;;;;8.88;4.30;;;23.30;99.10;;;;;;5091437;28;20062;-64
2023/06/07 11:36:04;;;;;;;8.05;4.35;;;23.50;99.10;;;;;;5091700;28;20040;-63
2023/06/07 11:38:31;;;;;;;7.15;4.20;;;23.60;98.90;;;;;;5090309;28;20399;-65
2023/06/07 11:40:57;;;;;;;8.38;4.22;;;23.80;98.90;;;;;;5090228;28;20044;-64
2023/06/07 11:43:25;;;;;;;7.75;4.00;;;23.70;98.40;;;;;;5090447;28;20434;-65
2023/06/07 11:45:55;;;;;;;7.88;4.28;;;23.50;98.60;;;;;;5090779;28;20056;-65
2023/06/07 11:48:26;;;;;;;10.07;3.92;;;23.80;98.20;;;;;;5090744;28;20079;-64
2023/06/07 11:50:53;;;;;;;7.80;4.25;;;23.70;97.80;;;;;;5090603;28;20067;-64
2023/06/07 11:53:20;;;;;;;7.07;4.60;;;23.80;98.20;;;;;;5092176;28;20044;-63
2023/06/07 11:55:46;;;;;;;9.57;4.35;;;24.00;98.00;;;;;;5092351;28;20056;-61
2023/06/07 11:58:13;;;;;;;8.10;4.28;;;23.90;97.80;;;;;;5092210;28;20324;-63
2023/06/07 12:00:42;;;;;;;9.07;4.53;;;23.60;97.70;;;;;;5091519;28;20452;-62
2023/06/07 12:03:10;;;;;;;8.60;4.15;;;23.60;97.90;;;;;;5091731;28;20097;-62
2023/06/07 12:05:37;;;;;;;9.45;4.28;;;23.80;98.40;;;;;;5094278;28;20062;-61
2023/06/07 12:08:17;;;;;;;9.18;4.65;;;23.90;98.10;;;;;;5095559;28;20044;-61
2023/06/07 12:10:52;;;;;;;6.80;3.78;;;24.10;97.70;;;;;;5095184;28;20101;-62
2023/06/07 12:13:20;;;;;;;8.70;4.38;;;24.20;97.80;;;;;;5095494;28;20113;-63
2023/06/07 12:15:57;;;;;;;8.32;3.95;;;24.10;97.60;;;;;;5095644;28;20122;-63
2023/06/07 12:18:26;;;;;;;7.13;3.58;;;24.10;97.00;;;;;;5095623;28;20051;-63
2023/06/07 12:21:08;;;;;;;7.45;4.32;;;24.10;97.80;;;;;;5094858;28;20071;-63
2023/06/07 12:23:36;;;;;;;9.60;4.13;;;24.10;97.30;;;;;;5095147;28;20048;-64
2023/06/07 12:26:07;;;;;;;9.77;4.40;;;24.00;97.50;;;;;;5095273;28;20040;-63
2023/06/07 12:28:34;;;;;;;8.50;4.65;;;24.00;97.90;;;;;;5094780;28;20277;-62
2023/06/07 12:31:00;;;;;;;10.18;4.53;;;24.10;97.80;;;;;;5094995;28;20048;-63
2023/06/07 12:33:28;;;;;;;9.52;3.97;;;23.90;97.60;;;;;;5094761;28;20059;-63
2023/06/07 12:35:59;;;;;;;9.10;4.38;;;23.90;97.70;;;;;;5095038;28;20047;-63
2023/06/07 12:38:25;;;;;;;11.75;4.25;;;24.00;97.50;;;;;;5095064;28;20060;-62
2023/06/07 12:40:52;;;;;;;8.02;3.80;;;24.20;97.50;;;;;;5094747;28;20058;-63
2023/06/07 12:43:18;;;;;;;8.35;4.10;;;24.40;97.50;;;;;;5094944;28;20048;-63
2023/06/07 12:45:44;;;;;;;8.68;4.30;;;24.60;97.30;;;;;;5094988;28;20048;-64
2023/06/07 12:48:11;;;;;;;9.57;4.38;;;24.70;96.80;;;;;;5094650;28;20471;-63